Time;durP1;ratioP1;P1;durP2;ratioP2;P2;SDS_P1;SDS_P2;PMS_P1;PMS_P2;Temp;Humidity;BMP_temperature;BMP_pressure;BME280_temperature;BME280_humidity;BME280_pressure;Samples;Min_cycle;Max_cycle;Signal;HPM_P1;HPM_P2
2023/01/05 00:02:33;;;;;;;3.20;0.35;;;;;;;13.44;100.00;101238.84;10400715;28;20436;-87
2023/01/05 00:07:35;;;;;;;0.10;0.10;;;;;;;13.10;100.00;101240.69;10417455;28;20080;-86
2023/01/05 00:23:18;;;;;;;12.50;0.30;;;;;;;13.20;100.00;101299.56;10416670;28;20049;-87
2023/01/05 00:28:19;;;;;;;0.15;0.15;;;;;;;13.08;100.00;101299.28;10400920;28;20045;-88
2023/01/05 00:33:21;;;;;;;0.28;0.28;;;;;;;13.18;100.00;101283.13;10416187;28;20045;-86
2023/01/05 00:38:23;;;;;;;2.53;0.20;;;;;;;13.23;100.00;101297.03;10400353;28;20076;-87
2023/01/05 00:43:24;;;;;;;0.00;0.00;;;;;;;13.15;100.00;101291.69;10399825;28;20045;-86
2023/01/05 00:48:26;;;;;;;0.45;0.45;;;;;;;13.06;100.00;101301.84;10399967;28;20052;-87
2023/01/05 00:53:28;;;;;;;1.75;1.10;;;;;;;12.82;100.00;101322.84;10399270;28;20064;-87
2023/01/05 00:58:29;;;;;;;0.75;0.22;;;;;;;12.86;100.00;101332.41;10395965;28;20053;-86
2023/01/05 01:03:31;;;;;;;0.80;0.47;;;;;;;12.92;100.00;101365.31;10415731;28;20080;-87
2023/01/05 01:08:33;;;;;;;4.00;0.85;;;;;;;12.67;100.00;101378.53;10398537;28;20053;-87
2023/01/05 01:13:37;;;;;;;2.10;0.50;;;;;;;12.66;100.00;101406.91;10415711;28;20056;-86
2023/01/05 01:18:40;;;;;;;0.95;0.47;;;;;;;12.49;100.00;101404.78;10414545;28;20060;-87
2023/01/05 01:23:42;;;;;;;3.83;0.52;;;;;;;12.41;100.00;101438.97;10415125;28;20040;-87
2023/01/05 01:28:47;;;;;;;1.20;1.00;;;;;;;12.59;100.00;101464.44;10414765;28;20046;-87
2023/01/05 01:33:49;;;;;;;0.00;0.00;;;;;;;12.21;100.00;101475.50;10414422;28;20084;-87
2023/01/05 01:38:51;;;;;;;0.20;0.20;;;;;;;12.59;100.00;101491.19;10397989;28;20049;-86
2023/01/05 01:43:55;;;;;;;4.13;0.52;;;;;;;12.46;100.00;101514.94;10414417;28;20100;-87
2023/01/05 01:49:07;;;;;;;3.33;0.40;;;;;;;12.50;100.00;101519.34;10414473;28;20049;-88
2023/01/05 01:54:12;;;;;;;1.40;0.93;;;;;;;12.60;100.00;101520.47;10414039;28;20050;-87
2023/01/05 01:59:15;;;;;;;16.15;1.05;;;;;;;12.20;100.00;101526.28;10397975;28;20045;-87
2023/01/05 02:04:18;;;;;;;1.27;1.00;;;;;;;12.23;100.00;101553.91;10413855;28;20038;-88
2023/01/05 02:09:19;;;;;;;1.08;0.80;;;;;;;12.28;100.00;101567.84;10414042;28;20061;-87
2023/01/05 02:15:08;;;;;;;14.32;0.50;;;;;;;12.53;100.00;101574.59;10414312;28;20045;-87
2023/01/05 02:20:50;;;;;;;0.20;0.20;;;;;;;12.44;100.00;101600.16;10398525;28;20054;-87
2023/01/05 02:26:07;;;;;;;2.10;0.73;;;;;;;12.48;100.00;101580.47;10405941;28;20100;-87
2023/01/05 02:31:17;;;;;;;0.00;0.00;;;;;;;12.47;100.00;101547.72;10402341;28;20136;-87
2023/01/05 02:36:32;;;;;;;6.75;1.08;;;;;;;12.56;100.00;101542.78;10396081;28;20049;-87
2023/01/05 02:41:46;;;;;;;0.65;0.43;;;;;;;12.33;100.00;101527.50;10410309;28;20048;-87
2023/01/05 02:47:00;;;;;;;0.98;0.45;;;;;;;12.78;100.00;101539.09;10420857;28;20044;-87
2023/01/05 02:52:05;;;;;;;3.47;0.35;;;;;;;12.57;100.00;101530.75;10420996;28;20136;-87
2023/01/05 02:57:10;;;;;;;0.35;0.20;;;;;;;12.72;100.00;101543.22;10403782;28;20045;-87
2023/01/05 03:02:24;;;;;;;0.10;0.10;;;;;;;12.62;100.00;101553.28;10403893;28;20539;-87
2023/01/05 03:07:33;;;;;;;4.63;0.80;;;;;;;12.91;100.00;101544.59;10382035;28;20477;-87
2023/01/05 03:18:15;;;;;;;0.32;0.22;;;;;;;12.40;100.00;101558.72;10419805;28;20555;-87
2023/01/05 03:39:47;;;;;;;1.35;0.13;;;;;;;12.53;100.00;101537.53;10417924;28;20056;-87
2023/01/05 03:44:49;;;;;;;0.68;0.60;;;;;;;12.72;100.00;101527.69;10401931;28;20511;-86
2023/01/05 03:49:51;;;;;;;0.47;0.47;;;;;;;12.74;100.00;101531.22;10401837;28;20501;-86
2023/01/05 03:54:53;;;;;;;5.38;0.20;;;;;;;12.75;100.00;101522.63;10401868;28;20065;-87
2023/01/05 03:59:56;;;;;;;5.35;1.42;;;;;;;12.91;100.00;101519.63;10417612;28;20052;-87
2023/01/05 04:04:59;;;;;;;0.52;0.45;;;;;;;12.64;100.00;101520.63;10417820;28;20056;-87
2023/01/05 04:10:01;;;;;;;0.88;0.85;;;;;;;12.60;100.00;101529.13;10418211;28;20124;-87
2023/01/05 04:15:05;;;;;;;0.85;0.73;;;;;;;12.81;100.00;101528.81;10417381;28;20129;-88
2023/01/05 04:20:08;;;;;;;0.00;0.00;;;;;;;12.80;100.00;101510.69;10414887;28;20077;-87
2023/01/05 04:25:10;;;;;;;0.00;0.00;;;;;;;12.80;100.00;101531.38;10416735;28;20599;-87
2023/01/05 04:30:15;;;;;;;3.30;0.55;;;;;;;12.64;100.00;101567.16;10417037;28;20046;-87
2023/01/05 04:35:16;;;;;;;1.10;0.25;;;;;;;12.88;100.00;101607.44;10416650;28;20047;-88
2023/01/05 04:40:19;;;;;;;0.45;0.17;;;;;;;12.81;100.00;101663.28;10400503;28;20041;-88
2023/01/05 04:45:25;;;;;;;0.85;0.15;;;;;;;12.63;100.00;101681.72;10400294;28;20045;-86
2023/01/05 04:50:28;;;;;;;1.48;0.57;;;;;;;12.83;100.00;101694.38;10416203;28;20132;-87
2023/01/05 04:55:31;;;;;;;1.88;0.63;;;;;;;12.54;100.00;101672.00;10415437;28;20042;-87
2023/01/05 05:00:33;;;;;;;0.17;0.17;;;;;;;12.68;100.00;101659.47;10416148;28;20480;-87
2023/01/05 05:05:38;;;;;;;0.80;0.75;;;;;;;12.68;100.00;101662.06;10399723;28;20054;-87
2023/01/05 05:10:42;;;;;;;1.65;1.30;;;;;;;12.59;100.00;101666.97;10415326;28;20046;-88
2023/01/05 05:15:44;;;;;;;0.00;0.00;;;;;;;12.83;100.00;101642.66;10415079;28;20045;-87
2023/01/05 05:20:50;;;;;;;0.17;0.17;;;;;;;12.71;100.00;101650.94;10398470;28;20045;-86
2023/01/05 05:25:52;;;;;;;1.30;0.28;;;;;;;12.37;100.00;101720.56;10374477;28;20560;-87
2023/01/05 05:30:57;;;;;;;1.35;0.57;;;;;;;12.70;100.00;101753.47;10394924;28;20111;-87
2023/01/05 05:35:59;;;;;;;1.35;1.10;;;;;;;12.36;100.00;101819.59;10398585;28;20424;-86
2023/01/05 05:41:00;;;;;;;0.10;0.10;;;;;;;12.49;100.00;101846.72;10398107;28;20041;-87
2023/01/05 05:46:02;;;;;;;0.98;0.52;;;;;;;12.64;100.00;101855.81;10398566;28;20068;-87
2023/01/05 05:51:04;;;;;;;0.75;0.47;;;;;;;12.53;100.00;101868.41;10414583;28;20412;-87
2023/01/05 05:56:06;;;;;;;0.22;0.22;;;;;;;12.53;100.00;101866.66;10414805;28;20104;-88
2023/01/05 06:01:08;;;;;;;5.57;1.17;;;;;;;12.40;100.00;101873.97;10414956;28;20041;-88
2023/01/05 06:06:10;;;;;;;0.80;0.20;;;;;;;12.57;100.00;101883.16;10421398;28;20105;-87
2023/01/05 06:11:12;;;;;;;0.17;0.10;;;;;;;12.65;100.00;101862.75;10438939;28;20443;-87
2023/01/05 06:16:14;;;;;;;0.73;0.22;;;;;;;12.53;100.00;101858.91;10421970;28;20053;-88
2023/01/05 06:21:15;;;;;;;1.40;0.80;;;;;;;12.73;100.00;101850.97;10421676;28;20042;-87
2023/01/05 06:26:17;;;;;;;2.05;0.52;;;;;;;12.42;100.00;101828.38;10421645;28;20444;-87
2023/01/05 06:31:20;;;;;;;4.78;0.93;;;;;;;12.88;100.00;101842.78;10421431;28;20045;-87
2023/01/05 06:36:21;;;;;;;1.38;0.68;;;;;;;12.58;100.00;101825.47;10423114;28;20141;-88
2023/01/05 06:41:23;;;;;;;0.15;0.05;;;;;;;12.78;100.00;101840.72;10421100;28;20041;-87
2023/01/05 06:46:25;;;;;;;1.00;0.22;;;;;;;12.81;100.00;101844.28;10420761;28;20405;-88
2023/01/05 06:51:26;;;;;;;0.00;0.00;;;;;;;12.67;100.00;101850.72;10420571;28;20381;-88
2023/01/05 06:56:28;;;;;;;6.22;0.80;;;;;;;12.77;100.00;101859.69;10420527;28;20041;-87
2023/01/05 07:01:29;;;;;;;0.57;0.55;;;;;;;12.62;100.00;101868.66;10403904;28;20148;-88
2023/01/05 07:06:33;;;;;;;0.08;0.08;;;;;;;12.74;100.00;101891.47;10420197;28;20053;-87
2023/01/05 07:11:35;;;;;;;0.25;0.22;;;;;;;12.77;100.00;101939.84;10420341;28;20048;-87
2023/01/05 07:16:37;;;;;;;0.00;0.00;;;;;;;12.61;100.00;101967.78;10419177;28;20477;-87
2023/01/05 07:21:38;;;;;;;0.17;0.10;;;;;;;12.70;100.00;101955.13;10403535;28;20041;-87
2023/01/05 07:26:40;;;;;;;0.00;0.00;;;;;;;12.60;100.00;101957.34;10419606;28;20045;-87
2023/01/05 07:31:42;;;;;;;1.25;1.10;;;;;;;12.47;100.00;101966.41;10423697;28;20049;-87
2023/01/05 07:36:43;;;;;;;1.10;0.28;;;;;;;12.63;100.00;101958.34;10419391;28;20396;-87
2023/01/05 07:41:45;;;;;;;0.10;0.10;;;;;;;12.64;100.00;101992.84;10418885;28;20037;-87
2023/01/05 07:46:49;;;;;;;0.10;0.10;;;;;;;12.60;100.00;102051.31;10418970;28;20073;-87
2023/01/05 07:51:51;;;;;;;0.03;0.03;;;;;;;12.43;100.00;102060.16;10419244;28;20046;-88
2023/01/05 07:57:25;;;;;;;1.30;0.52;;;;;;;12.53;100.00;102080.34;10401593;28;20053;-88
2023/01/05 08:02:27;;;;;;;3.13;1.13;;;;;;;12.52;100.00;102096.69;10419660;28;20050;-88
2023/01/05 08:07:36;;;;;;;0.35;0.35;;;;;;;12.51;100.00;102090.63;10418735;28;20049;-88
2023/01/05 08:13:58;;;;;;;0.00;0.00;;;;;;;12.53;100.00;102088.09;10386287;28;20046;-87
2023/01/05 08:17:59;;;;;;;6.68;0.40;;;;;;;12.70;100.00;102088.72;10376238;28;20437;-87
2023/01/05 08:23:01;;;;;;;0.00;0.00;;;;;;;12.75;100.00;102081.13;10399327;28;20045;-88
2023/01/05 08:28:02;;;;;;;0.50;0.50;;;;;;;12.70;100.00;102062.84;10401363;28;20057;-88
2023/01/05 08:33:04;;;;;;;6.85;0.32;;;;;;;12.93;100.00;102058.47;10416805;28;20060;-87
2023/01/05 08:38:06;;;;;;;0.45;0.20;;;;;;;12.93;100.00;102035.22;10416622;28;20053;-88
2023/01/05 08:43:07;;;;;;;2.55;0.80;;;;;;;12.64;100.00;102057.47;10400933;28;20041;-88
2023/01/05 08:48:09;;;;;;;0.38;0.03;;;;;;;13.02;100.00;102030.34;10416682;28;20057;-88
2023/01/05 08:53:11;;;;;;;0.00;0.00;;;;;;;13.09;100.00;102004.69;10399982;28;20057;-88
2023/01/05 08:58:12;;;;;;;3.72;0.75;;;;;;;12.83;100.00;101989.19;10399776;28;20053;-88
2023/01/05 09:03:14;;;;;;;0.45;0.13;;;;;;;13.13;100.00;102006.56;10399815;28;20127;-87
2023/01/05 09:08:16;;;;;;;1.45;0.38;;;;;;;13.11;100.00;102003.03;10399439;28;20057;-88
2023/01/05 09:13:17;;;;;;;0.35;0.22;;;;;;;12.94;100.00;101977.47;10399562;28;20050;-88
2023/01/05 09:18:19;;;;;;;0.00;0.00;;;;;;;12.79;100.00;101972.69;10399396;28;20111;-88
2023/01/05 09:23:21;;;;;;;0.55;0.40;;;;;;;12.97;100.00;101976.69;10399267;28;20065;-88
2023/01/05 09:28:23;;;;;;;0.80;0.30;;;;;;;13.17;100.00;101967.00;10399112;28;20053;-88
2023/01/05 09:33:25;;;;;;;1.00;0.52;;;;;;;12.80;100.00;101955.44;10398651;28;20046;-88
2023/01/05 09:38:26;;;;;;;2.80;1.17;;;;;;;13.16;100.00;101947.13;10398769;28;20049;-87
2023/01/05 09:43:36;;;;;;;2.38;0.30;;;;;;;13.36;100.00;101931.38;10400079;28;20052;-88
2023/01/05 09:48:41;;;;;;;35.65;1.25;;;;;;;13.23;100.00;101936.16;10400180;28;20477;-88
2023/01/05 09:53:43;;;;;;;0.00;0.00;;;;;;;13.35;100.00;101960.66;10399162;28;20045;-88
2023/01/05 09:58:46;;;;;;;0.08;0.05;;;;;;;13.14;100.00;101960.03;10398411;28;20060;-88
2023/01/05 10:03:59;;;;;;;0.00;0.00;;;;;;;13.36;100.00;101941.72;10397953;28;20046;-88
2023/01/05 10:09:06;;;;;;;0.00;0.00;;;;;;;13.35;100.00;101952.91;10415225;28;20045;-88
2023/01/05 10:14:16;;;;;;;0.70;0.40;;;;;;;13.45;100.00;101936.84;10414447;28;20037;-88
2023/01/05 10:19:19;;;;;;;0.10;0.10;;;;;;;13.33;100.00;101911.44;10414288;28;20051;-88
2023/01/05 10:24:39;;;;;;;0.10;0.10;;;;;;;13.62;100.00;101904.56;10414754;28;20042;-88
2023/01/05 10:29:45;;;;;;;0.70;0.57;;;;;;;13.22;100.00;101892.13;10414267;28;20408;-88
2023/01/05 10:35:19;;;;;;;0.00;0.00;;;;;;;13.33;100.00;101886.44;10414052;28;20124;-88
2023/01/05 10:41:18;;;;;;;0.22;0.10;;;;;;;13.56;100.00;101862.97;10369095;28;20060;-88
2023/01/05 10:46:20;;;;;;;0.22;0.22;;;;;;;13.52;100.00;101844.72;10413910;28;20049;-87
2023/01/05 10:51:38;;;;;;;0.20;0.10;;;;;;;13.55;100.00;101842.22;10416521;28;20053;-88
2023/01/05 10:56:40;;;;;;;0.25;0.08;;;;;;;13.55;100.00;101832.75;10420992;28;20060;-89
2023/01/05 11:01:45;;;;;;;1.27;0.57;;;;;;;13.72;100.00;101806.44;10421211;28;20477;-88
2023/01/05 11:06:48;;;;;;;0.30;0.20;;;;;;;13.70;100.00;101788.25;10420698;28;20047;-88
2023/01/05 11:11:55;;;;;;;0.55;0.55;;;;;;;13.71;100.00;101796.91;10420590;28;20061;-88
2023/01/05 11:17:05;;;;;;;0.85;0.35;;;;;;;13.73;100.00;101764.19;10419855;28;20045;-88
2023/01/05 11:22:36;;;;;;;0.98;0.52;;;;;;;13.95;100.00;101753.53;10404448;28;20076;-87
2023/01/05 11:27:38;;;;;;;;;;;;;;;14.11;100.00;101734.06;10419587;28;20045;-88
2023/01/05 11:32:41;;;;;;;0.20;0.10;;;;;;;13.87;100.00;101734.34;10394001;28;19944;-87
2023/01/05 11:37:44;;;;;;;0.00;0.00;;;;;;;13.80;100.00;101740.19;10378079;28;20215;-87
2023/01/05 11:42:47;;;;;;;1.83;0.25;;;;;;;13.89;100.00;101758.53;10402091;28;20042;-88
2023/01/05 11:47:52;;;;;;;0.00;0.00;;;;;;;13.73;100.00;101726.19;10419808;28;20084;-87
2023/01/05 11:52:59;;;;;;;1.02;0.22;;;;;;;13.61;100.00;101741.44;10419294;28;20045;-88
2023/01/05 11:58:24;;;;;;;3.20;0.10;;;;;;;13.52;100.00;101747.22;10401946;28;20049;-87
2023/01/05 12:03:26;;;;;;;0.20;0.20;;;;;;;13.55;100.00;101731.78;10418909;28;20049;-88
2023/01/05 12:08:53;;;;;;;1.75;0.10;;;;;;;13.73;100.00;101722.75;10418100;28;20078;-88
2023/01/05 12:14:24;;;;;;;0.80;0.15;;;;;;;14.12;100.00;101724.56;10417356;28;20048;-87
2023/01/05 12:19:44;;;;;;;1.35;1.00;;;;;;;13.37;100.00;101731.22;10418352;28;20081;-87
2023/01/05 12:25:00;;;;;;;0.77;0.47;;;;;;;13.94;100.00;101704.25;10417432;28;20052;-88
2023/01/05 12:30:17;;;;;;;0.20;0.10;;;;;;;13.78;100.00;101710.78;10416894;28;20481;-88
2023/01/05 12:36:00;;;;;;;6.80;0.73;;;;;;;13.55;100.00;101700.69;10416997;28;20068;-86
2023/01/05 12:41:13;;;;;;;0.00;0.00;;;;;;;13.62;100.00;101702.63;10416721;28;20413;-87
2023/01/05 12:46:50;;;;;;;0.15;0.15;;;;;;;13.71;100.00;101701.09;10416830;28;20468;-88
2023/01/05 12:52:01;;;;;;;3.95;0.90;;;;;;;13.72;100.00;101687.31;10416157;28;20041;-87
2023/01/05 12:57:15;;;;;;;0.00;0.00;;;;;;;13.99;100.00;101665.53;10375263;28;20053;-87
2023/01/05 13:02:27;;;;;;;0.10;0.10;;;;;;;14.16;100.00;101648.66;10376500;28;20046;-87
2023/01/05 13:07:52;;;;;;;2.15;0.65;;;;;;;14.54;100.00;101593.31;10375875;28;20477;-87
2023/01/05 13:12:59;;;;;;;0.10;0.10;;;;;;;15.01;100.00;101548.41;10375184;28;20072;-87
2023/01/05 13:18:04;;;;;;;2.53;0.52;;;;;;;14.38;100.00;101519.53;10391303;28;20057;-88
2023/01/05 13:23:21;;;;;;;4.65;0.70;;;;;;;14.40;100.00;101503.16;10374201;28;20057;-88
2023/01/05 13:28:24;;;;;;;0.20;0.20;;;;;;;14.86;100.00;101466.84;10375663;28;20128;-88
2023/01/05 13:34:38;;;;;;;9.75;0.45;;;;;;;14.81;100.00;101460.72;10374173;28;20104;-88
2023/01/05 13:40:31;;;;;;;0.90;0.30;;;;;;;13.94;100.00;101472.03;10373526;28;20510;-88
2023/01/05 13:46:00;;;;;;;4.47;1.45;;;;;;;13.89;100.00;101502.09;10357636;28;20214;-87
2023/01/05 13:51:14;;;;;;;0.55;0.35;;;;;;;13.96;100.00;101483.25;10374072;28;20053;-87
2023/01/05 13:56:24;;;;;;;4.78;1.20;;;;;;;14.03;100.00;101449.75;10375001;28;20093;-88
2023/01/05 14:01:42;;;;;;;0.00;0.00;;;;;;;14.06;100.00;101449.78;10375056;28;20053;-88
2023/01/05 14:06:49;;;;;;;0.80;0.32;;;;;;;14.09;100.00;101436.91;10373729;28;20412;-88
2023/01/05 14:12:06;;;;;;;0.57;0.57;;;;;;;14.56;100.00;101436.91;10398309;28;20489;-87
2023/01/05 14:17:08;;;;;;;0.00;0.00;;;;;;;14.44;100.00;101423.72;10414858;28;20056;-88
2023/01/05 14:22:37;;;;;;;0.20;0.20;;;;;;;14.52;100.00;101432.53;10413913;28;20572;-88
2023/01/05 14:28:17;;;;;;;0.52;0.45;;;;;;;14.20;100.00;101431.94;10417797;28;20056;-88
2023/01/05 14:33:19;;;;;;;1.77;0.30;;;;;;;13.83;100.00;101447.59;10405381;28;20038;-89
2023/01/05 14:38:24;;;;;;;0.20;0.20;;;;;;;14.04;100.00;101428.13;10421629;28;20508;-88
2023/01/05 14:43:31;;;;;;;0.57;0.57;;;;;;;13.45;100.00;101453.69;10421043;28;20045;-88
2023/01/05 14:48:38;;;;;;;0.10;0.10;;;;;;;13.44;100.00;101474.38;10367023;28;20050;-88
2023/01/05 14:53:43;;;;;;;2.05;0.90;;;;;;;13.41;100.00;101479.47;10363532;28;20450;-88
2023/01/05 14:58:44;;;;;;;0.70;0.35;;;;;;;13.30;100.00;101477.44;10415028;28;20057;-87
2023/01/05 15:03:52;;;;;;;0.17;0.13;;;;;;;13.19;100.00;101478.91;10420478;28;20049;-88
2023/01/05 15:09:05;;;;;;;0.20;0.10;;;;;;;13.63;100.00;101471.34;10404224;28;20056;-88
2023/01/05 15:14:35;;;;;;;0.10;0.05;;;;;;;13.29;100.00;101467.94;10404135;28;20140;-90
2023/01/05 15:20:41;;;;;;;0.43;0.05;;;;;;;13.55;100.00;101440.97;10420077;28;20411;-88
2023/01/05 15:26:29;;;;;;;0.20;0.10;;;;;;;13.66;100.00;101423.06;10418996;28;20485;-88
2023/01/05 15:37:39;;;;;;;3.65;1.65;;;;;;;13.10;100.00;101473.50;10419057;28;20092;-88
2023/01/05 15:42:43;;;;;;;0.40;0.20;;;;;;;13.07;100.00;101478.63;10418980;28;20053;-88
2023/01/05 15:47:46;;;;;;;0.85;0.47;;;;;;;13.09;100.00;101482.09;10419046;28;20061;-88
2023/01/05 15:52:57;;;;;;;0.55;0.43;;;;;;;12.94;100.00;101493.81;10402242;28;20041;-88
2023/01/05 15:58:13;;;;;;;0.85;0.38;;;;;;;13.27;100.00;101492.91;10418618;28;20045;-88
2023/01/05 16:03:28;;;;;;;0.20;0.20;;;;;;;12.88;100.00;101511.75;10418161;28;20500;-88
2023/01/05 16:08:33;;;;;;;0.22;0.10;;;;;;;12.96;100.00;101558.50;10418089;28;20054;-88
2023/01/05 16:13:40;;;;;;;2.35;1.38;;;;;;;12.93;100.00;101652.41;10401447;28;20050;-88
2023/01/05 16:18:50;;;;;;;0.00;0.00;;;;;;;13.12;100.00;101696.91;10401644;28;20081;-88
2023/01/05 16:24:13;;;;;;;0.70;0.20;;;;;;;13.24;100.00;101650.66;10418178;28;20053;-88
2023/01/05 16:29:28;;;;;;;0.15;0.10;;;;;;;12.66;100.00;101634.38;10417334;28;20092;-89
2023/01/05 16:34:31;;;;;;;1.08;0.45;;;;;;;12.87;100.00;101680.69;10417776;28;20500;-88
2023/01/05 16:40:00;;;;;;;0.68;0.22;;;;;;;12.95;100.00;101692.13;10416713;28;20041;-88
2023/01/05 16:45:32;;;;;;;0.20;0.20;;;;;;;12.61;100.00;101700.59;10416264;28;20049;-88
2023/01/05 16:50:36;;;;;;;0.17;0.17;;;;;;;12.94;100.00;101680.03;10417172;28;20057;-88
2023/01/05 16:55:38;;;;;;;0.25;0.25;;;;;;;13.16;100.00;101680.63;10416378;28;20092;-88
2023/01/05 17:00:40;;;;;;;2.35;0.63;;;;;;;12.45;100.00;101688.94;10416843;28;20054;-88
2023/01/05 17:05:42;;;;;;;0.30;0.30;;;;;;;12.65;100.00;101718.84;10416000;28;20045;-88
2023/01/05 17:10:44;;;;;;;0.10;0.10;;;;;;;12.85;100.00;101727.19;10416093;28;20405;-88
2023/01/05 17:15:48;;;;;;;0.30;0.20;;;;;;;12.29;100.00;101776.28;10415793;28;20509;-88
2023/01/05 17:20:52;;;;;;;1.48;0.40;;;;;;;12.68;100.00;101860.25;10415550;28;20049;-88
2023/01/05 17:26:04;;;;;;;0.20;0.20;;;;;;;12.38;100.00;101916.16;10415919;28;20661;-87
2023/01/05 17:31:06;;;;;;;0.98;0.35;;;;;;;12.43;100.00;101902.50;10415310;28;20455;-88
2023/01/05 17:36:08;;;;;;;1.23;0.93;;;;;;;12.56;100.00;101920.19;10415319;28;20111;-87
2023/01/05 17:41:12;;;;;;;0.52;0.28;;;;;;;12.68;100.00;101924.88;10415505;28;20091;-89
2023/01/05 17:46:21;;;;;;;1.85;0.88;;;;;;;11.96;100.00;101942.16;10415793;28;20058;-88
2023/01/05 17:51:23;;;;;;;1.45;1.02;;;;;;;12.38;100.00;101944.56;10416213;28;20045;-88
2023/01/05 17:56:25;;;;;;;1.90;1.27;;;;;;;12.38;100.00;101941.09;10399417;28;20046;-89
2023/01/05 18:01:26;;;;;;;2.28;0.68;;;;;;;12.31;100.00;101929.69;10419670;28;20053;-89
2023/01/05 18:06:28;;;;;;;0.15;0.08;;;;;;;12.62;100.00;101894.53;10422866;28;20204;-88
2023/01/05 18:11:30;;;;;;;0.65;0.50;;;;;;;12.59;100.00;101894.44;10422648;28;20041;-88
2023/01/05 18:16:32;;;;;;;4.07;2.20;;;;;;;12.34;100.00;101932.34;10422298;28;20144;-88
2023/01/05 18:21:34;;;;;;;1.98;0.85;;;;;;;12.11;100.00;101972.88;10422223;28;20053;-88
2023/01/05 18:26:36;;;;;;;1.80;0.52;;;;;;;12.12;100.00;101994.41;10405924;28;20050;-88
2023/01/05 18:31:38;;;;;;;0.77;0.68;;;;;;;11.92;100.00;101999.69;10422076;28;20050;-89
2023/01/05 18:36:43;;;;;;;0.75;0.40;;;;;;;11.95;100.00;102033.38;10421772;28;20048;-88
2023/01/05 18:41:45;;;;;;;0.60;0.45;;;;;;;12.08;100.00;102045.09;10421596;28;20055;-90
2023/01/05 18:46:47;;;;;;;5.15;0.88;;;;;;;11.98;100.00;102046.44;10406175;28;20049;-89
2023/01/05 18:51:51;;;;;;;2.65;1.10;;;;;;;11.81;100.00;102066.41;10421109;28;20049;-87
2023/01/05 18:56:52;;;;;;;0.43;0.32;;;;;;;12.37;100.00;102095.28;10421622;28;20045;-89
2023/01/05 19:01:54;;;;;;;1.38;0.68;;;;;;;12.22;100.00;102105.03;10421168;28;20081;-89
2023/01/05 19:06:56;;;;;;;0.45;0.45;;;;;;;12.14;100.00;102080.59;10420620;28;20136;-90
2023/01/05 19:11:57;;;;;;;0.28;0.28;;;;;;;11.80;100.00;102130.91;10403083;28;20513;-89
2023/01/05 19:16:59;;;;;;;1.33;0.60;;;;;;;12.02;100.00;102148.16;10420816;28;20042;-89
2023/01/05 19:22:02;;;;;;;1.38;0.70;;;;;;;12.10;100.00;102223.41;10420005;28;20053;-89
2023/01/05 19:27:39;;;;;;;0.63;0.63;;;;;;;12.28;100.00;102218.97;10419851;28;20045;-90
2023/01/05 19:32:41;;;;;;;0.10;0.10;;;;;;;11.87;100.00;102224.19;10419841;28;20053;-88
2023/01/05 19:37:44;;;;;;;0.17;0.17;;;;;;;12.38;100.00;102204.69;10402977;28;20041;-89
2023/01/05 19:42:45;;;;;;;0.93;0.52;;;;;;;12.22;100.00;102126.56;10419286;28;20053;-88
2023/01/05 19:47:47;;;;;;;1.55;0.55;;;;;;;12.29;100.00;102138.03;10402540;28;20037;-89
2023/01/05 19:52:48;;;;;;;0.50;0.45;;;;;;;12.55;100.00;102176.91;10418931;28;20056;-89
2023/01/05 19:57:50;;;;;;;1.15;0.50;;;;;;;12.38;100.00;102205.59;10418757;28;20045;-89
2023/01/05 20:02:52;;;;;;;0.35;0.35;;;;;;;12.37;100.00;102224.50;10402022;28;20378;-89
2023/01/05 20:07:53;;;;;;;2.05;1.75;;;;;;;12.75;100.00;102184.56;10418076;28;20041;-89
2023/01/05 20:12:55;;;;;;;0.95;0.60;;;;;;;12.69;100.00;102180.03;10418722;28;20068;-89
2023/01/05 20:17:57;;;;;;;1.95;1.05;;;;;;;12.84;100.00;102190.97;10417605;28;20045;-88
2023/01/05 20:22:58;;;;;;;1.65;1.05;;;;;;;12.68;100.00;102188.63;10416997;28;20054;-89
2023/01/05 20:28:00;;;;;;;0.52;0.52;;;;;;;13.11;100.00;102197.09;10401493;28;20050;-89
2023/01/05 20:33:04;;;;;;;0.95;0.55;;;;;;;13.05;100.00;102133.06;10417237;28;20057;-89
2023/01/05 20:38:05;;;;;;;0.73;0.65;;;;;;;12.97;100.00;102181.94;10400648;28;20049;-89
2023/01/05 20:43:07;;;;;;;0.95;0.55;;;;;;;13.04;100.00;102127.84;10400187;28;20497;-89
2023/01/05 20:48:09;;;;;;;1.92;0.98;;;;;;;12.92;100.00;102172.25;10380886;28;20056;-88
2023/01/05 20:53:10;;;;;;;1.63;1.30;;;;;;;12.94;100.00;102158.53;10392289;28;20057;-89
2023/01/05 20:58:12;;;;;;;10.05;1.42;;;;;;;12.96;100.00;102143.97;10375294;28;20045;-88
2023/01/05 21:03:13;;;;;;;1.90;1.15;;;;;;;13.14;100.00;102129.94;10374966;28;20050;-89
2023/01/05 21:08:15;;;;;;;1.45;0.98;;;;;;;13.15;100.00;102111.88;10375078;28;20050;-88
2023/01/05 21:13:17;;;;;;;3.05;1.48;;;;;;;13.53;100.00;102121.78;10391424;28;20049;-89
2023/01/05 21:18:32;;;;;;;1.08;1.00;;;;;;;13.00;100.00;102067.34;10416850;28;20045;-88
2023/01/05 21:23:34;;;;;;;2.97;1.15;;;;;;;13.28;100.00;102047.56;10416072;28;20045;-89
2023/01/05 21:28:59;;;;;;;1.25;0.82;;;;;;;13.67;100.00;102021.25;10414717;28;20060;-89
2023/01/05 21:34:06;;;;;;;1.60;0.68;;;;;;;13.20;100.00;101999.84;10415293;28;20049;-89
2023/01/05 21:39:15;;;;;;;2.42;1.05;;;;;;;13.35;100.00;101977.06;10399380;28;20053;-89
2023/01/05 21:44:18;;;;;;;1.58;1.48;;;;;;;13.69;100.00;101961.72;10399113;28;20088;-89
2023/01/05 21:49:20;;;;;;;1.10;0.57;;;;;;;13.43;100.00;101860.88;10398755;28;20049;-89
2023/01/05 21:59:42;;;;;;;1.60;0.90;;;;;;;13.45;100.00;101830.72;10415844;28;20056;-89
2023/01/05 22:04:44;;;;;;;1.08;0.98;;;;;;;13.24;100.00;101793.00;10414479;28;20100;-89
2023/01/05 22:09:46;;;;;;;1.00;0.57;;;;;;;13.62;100.00;101743.19;10398287;28;20120;-89
2023/01/05 22:14:47;;;;;;;0.47;0.32;;;;;;;13.58;100.00;101680.09;10404928;28;20049;-89
2023/01/05 22:19:52;;;;;;;0.38;0.30;;;;;;;13.64;100.00;101638.81;10390477;28;20060;-89
2023/01/05 22:31:30;;;;;;;0.85;0.57;;;;;;;13.35;100.00;101593.16;10389340;28;20088;-90
2023/01/05 22:36:32;;;;;;;0.32;0.30;;;;;;;13.30;100.00;101596.47;10397573;28;20099;-89
2023/01/05 22:41:34;;;;;;;0.30;0.20;;;;;;;13.30;100.00;101604.25;10398686;28;20050;-89
2023/01/05 22:46:36;;;;;;;0.90;0.68;;;;;;;13.38;100.00;101583.78;10400783;28;20041;-89
2023/01/05 22:51:39;;;;;;;0.28;0.15;;;;;;;13.49;100.00;101566.81;10421610;28;20045;-89
2023/01/05 22:56:41;;;;;;;0.00;0.00;;;;;;;13.34;100.00;101514.63;10405127;28;20132;-89
2023/01/05 23:02:08;;;;;;;0.13;0.00;;;;;;;13.44;100.00;101459.69;10421172;28;20080;-89
2023/01/05 23:07:10;;;;;;;0.40;0.20;;;;;;;13.35;100.00;101430.13;10421309;28;20069;-89
2023/01/05 23:12:11;;;;;;;0.00;0.00;;;;;;;13.58;100.00;101413.41;10421093;28;20136;-89
2023/01/05 23:17:13;;;;;;;0.10;0.10;;;;;;;13.48;100.00;101372.63;10420671;28;20061;-89
2023/01/05 23:22:15;;;;;;;0.38;0.28;;;;;;;13.78;100.00;101351.66;10420205;28;20096;-89
2023/01/05 23:27:16;;;;;;;0.35;0.20;;;;;;;13.10;100.00;101370.03;10420233;28;20046;-89
2023/01/05 23:32:18;;;;;;;0.32;0.10;;;;;;;13.61;100.00;101410.88;10407021;28;20063;-89
2023/01/05 23:37:20;;;;;;;0.30;0.28;;;;;;;13.22;100.00;101483.28;10419794;28;20140;-89
2023/01/05 23:47:41;;;;;;;0.57;0.10;;;;;;;12.95;100.00;101573.16;10419197;28;20045;-89
2023/01/05 23:52:43;;;;;;;0.75;0.25;;;;;;;12.90;100.00;101605.78;10378687;28;20486;-88
2023/01/05 23:57:44;;;;;;;0.75;0.50;;;;;;;13.04;100.00;101634.59;10393702;28;20446;-89
